sensor_id;sensor_type;location;lat;lon;timestamp;pressure;altitude;pressure_sealevel;temperature;humidity
69911;BME280;63555;49.920;17.868;2023-04-07T00:04:21;98739.25;;;1.43;73.16
69911;BME280;63555;49.920;17.868;2023-04-07T00:09:22;98728.72;;;1.46;73.45
69911;BME280;63555;49.920;17.868;2023-04-07T00:14:22;98726.84;;;1.49;73.42
69911;BME280;63555;49.920;17.868;2023-04-07T00:19:22;98734.53;;;1.52;73.76
69911;BME280;63555;49.920;17.868;2023-04-07T00:24:23;98724.91;;;1.54;73.74
69911;BME280;63555;49.920;17.868;2023-04-07T00:29:23;98721.34;;;1.57;74.10
69911;BME280;63555;49.920;17.868;2023-04-07T00:34:23;98716.09;;;1.58;74.12
69911;BME280;63555;49.920;17.868;2023-04-07T00:39:23;98709.19;;;1.57;74.23
69911;BME280;63555;49.920;17.868;2023-04-07T00:44:26;98700.44;;;1.60;74.15
69911;BME280;63555;49.920;17.868;2023-04-07T00:49:27;98709.88;;;1.63;74.49
69911;BME280;63555;49.920;17.868;2023-04-07T00:54:29;98703.03;;;1.60;74.20
69911;BME280;63555;49.920;17.868;2023-04-07T00:59:29;98690.28;;;1.54;74.72
69911;BME280;63555;49.920;17.868;2023-04-07T01:04:54;98679.31;;;1.47;74.67
69911;BME280;63555;49.920;17.868;2023-04-07T01:10:04;98671.69;;;1.43;75.24
69911;BME280;63555;49.920;17.868;2023-04-07T01:15:09;98676.16;;;1.39;75.20
69911;BME280;63555;49.920;17.868;2023-04-07T01:20:13;98678.09;;;1.34;75.64
69911;BME280;63555;49.920;17.868;2023-04-07T01:30:39;98658.41;;;1.28;75.78
69911;BME280;63555;49.920;17.868;2023-04-07T01:35:41;98654.97;;;1.28;76.10
69911;BME280;63555;49.920;17.868;2023-04-07T01:40:43;98652.31;;;1.30;75.98
69911;BME280;63555;49.920;17.868;2023-04-07T01:45:44;98649.00;;;1.26;76.37
69911;BME280;63555;49.920;17.868;2023-04-07T01:50:45;98644.63;;;1.26;76.28
69911;BME280;63555;49.920;17.868;2023-04-07T01:55:45;98647.28;;;1.25;76.46
69911;BME280;63555;49.920;17.868;2023-04-07T02:00:46;98646.50;;;1.23;76.57
69911;BME280;63555;49.920;17.868;2023-04-07T02:05:49;98632.81;;;1.19;76.74
69911;BME280;63555;49.920;17.868;2023-04-07T02:10:51;98641.56;;;1.17;77.24
69911;BME280;63555;49.920;17.868;2023-04-07T02:15:55;98636.50;;;1.14;77.15
69911;BME280;63555;49.920;17.868;2023-04-07T02:20:56;98645.13;;;1.14;77.46
69911;BME280;63555;49.920;17.868;2023-04-07T02:25:57;98640.06;;;1.11;77.30
69911;BME280;63555;49.920;17.868;2023-04-07T02:30:57;98630.56;;;1.10;77.64
69911;BME280;63555;49.920;17.868;2023-04-07T02:35:58;98633.09;;;1.12;77.45
69911;BME280;63555;49.920;17.868;2023-04-07T02:40:58;98627.97;;;1.10;77.92
69911;BME280;63555;49.920;17.868;2023-04-07T02:45:58;98631.47;;;1.09;78.34
69911;BME280;63555;49.920;17.868;2023-04-07T02:50:59;98621.03;;;1.11;77.87
69911;BME280;63555;49.920;17.868;2023-04-07T02:55:59;98617.47;;;1.13;78.05
69911;BME280;63555;49.920;17.868;2023-04-07T03:01:00;98623.50;;;1.14;78.32
69911;BME280;63555;49.920;17.868;2023-04-07T03:06:00;98619.88;;;1.18;78.37
69911;BME280;63555;49.920;17.868;2023-04-07T03:11:00;98621.56;;;1.19;78.32
69911;BME280;63555;49.920;17.868;2023-04-07T03:16:01;98617.22;;;1.19;78.03
69911;BME280;63555;49.920;17.868;2023-04-07T03:21:01;98630.28;;;1.18;78.08
69911;BME280;63555;49.920;17.868;2023-04-07T03:26:02;98625.19;;;1.15;78.37
69911;BME280;63555;49.920;17.868;2023-04-07T03:31:02;98620.19;;;1.10;78.20
69911;BME280;63555;49.920;17.868;2023-04-07T03:36:03;98620.31;;;1.07;78.83
69911;BME280;63555;49.920;17.868;2023-04-07T03:41:03;98621.34;;;1.03;78.45
69911;BME280;63555;49.920;17.868;2023-04-07T03:46:04;98619.81;;;0.98;78.74
69911;BME280;63555;49.920;17.868;2023-04-07T03:51:04;98635.63;;;0.91;78.98
69911;BME280;63555;49.920;17.868;2023-04-07T03:56:04;98629.72;;;0.88;79.20
69911;BME280;63555;49.920;17.868;2023-04-07T04:01:05;98624.63;;;0.85;79.25
69911;BME280;63555;49.920;17.868;2023-04-07T04:06:05;98624.78;;;0.80;79.17
69911;BME280;63555;49.920;17.868;2023-04-07T04:11:06;98615.44;;;0.76;79.22
69911;BME280;63555;49.920;17.868;2023-04-07T04:16:06;98609.47;;;0.74;79.29
69911;BME280;63555;49.920;17.868;2023-04-07T04:21:07;98611.22;;;0.74;79.58
69911;BME280;63555;49.920;17.868;2023-04-07T04:26:08;98609.28;;;0.79;79.79
69911;BME280;63555;49.920;17.868;2023-04-07T04:31:08;98608.25;;;0.83;79.96
69911;BME280;63555;49.920;17.868;2023-04-07T04:36:08;98617.69;;;0.85;79.86
69911;BME280;63555;49.920;17.868;2023-04-07T04:41:09;98632.47;;;0.83;79.72
69911;BME280;63555;49.920;17.868;2023-04-07T04:46:09;98623.56;;;0.67;78.76
69911;BME280;63555;49.920;17.868;2023-04-07T04:51:10;98614.69;;;0.51;79.37
69911;BME280;63555;49.920;17.868;2023-04-07T04:56:10;98624.44;;;0.44;79.60
69911;BME280;63555;49.920;17.868;2023-04-07T05:01:11;98623.75;;;0.39;79.77
69911;BME280;63555;49.920;17.868;2023-04-07T05:06:12;98626.47;;;0.36;79.89
69911;BME280;63555;49.920;17.868;2023-04-07T05:11:12;98631.72;;;0.35;79.90
69911;BME280;63555;49.920;17.868;2023-04-07T05:16:13;98628.00;;;0.42;80.49
69911;BME280;63555;49.920;17.868;2023-04-07T05:21:16;98629.28;;;0.53;80.48
69911;BME280;63555;49.920;17.868;2023-04-07T05:26:16;98626.28;;;0.64;80.21
69911;BME280;63555;49.920;17.868;2023-04-07T05:31:16;98623.28;;;0.75;80.09
69911;BME280;63555;49.920;17.868;2023-04-07T05:36:17;98629.81;;;0.85;80.06
69911;BME280;63555;49.920;17.868;2023-04-07T05:41:17;98631.56;;;0.84;80.28
69911;BME280;63555;49.920;17.868;2023-04-07T05:46:17;98635.97;;;0.82;80.31
69911;BME280;63555;49.920;17.868;2023-04-07T05:51:17;98637.53;;;0.86;80.38
69911;BME280;63555;49.920;17.868;2023-04-07T05:56:18;98631.34;;;0.90;80.55
69911;BME280;63555;49.920;17.868;2023-04-07T06:01:18;98640.78;;;0.93;80.52
69911;BME280;63555;49.920;17.868;2023-04-07T06:06:18;98637.34;;;0.92;80.53
69911;BME280;63555;49.920;17.868;2023-04-07T06:11:19;98636.25;;;0.98;80.79
69911;BME280;63555;49.920;17.868;2023-04-07T06:16:20;98629.06;;;1.05;80.83
69911;BME280;63555;49.920;17.868;2023-04-07T06:21:20;98629.66;;;1.11;81.04
69911;BME280;63555;49.920;17.868;2023-04-07T06:26:21;98633.91;;;1.14;80.79
69911;BME280;63555;49.920;17.868;2023-04-07T06:31:21;98627.59;;;1.19;81.08
69911;BME280;63555;49.920;17.868;2023-04-07T06:36:21;98634.56;;;1.19;80.98
69911;BME280;63555;49.920;17.868;2023-04-07T06:41:22;98634.38;;;1.23;80.91
69911;BME280;63555;49.920;17.868;2023-04-07T06:46:23;98630.63;;;1.31;81.15
69911;BME280;63555;49.920;17.868;2023-04-07T06:51:25;98637.31;;;1.36;80.98
69911;BME280;63555;49.920;17.868;2023-04-07T06:56:25;98629.47;;;1.38;81.02
69911;BME280;63555;49.920;17.868;2023-04-07T07:01:26;98626.50;;;1.47;81.24
69911;BME280;63555;49.920;17.868;2023-04-07T07:06:27;98629.69;;;1.53;81.48
69911;BME280;63555;49.920;17.868;2023-04-07T07:11:27;98627.41;;;1.66;81.45
69911;BME280;63555;49.920;17.868;2023-04-07T07:16:28;98627.72;;;1.80;81.93
69911;BME280;63555;49.920;17.868;2023-04-07T07:21:28;98629.59;;;1.97;81.32
69911;BME280;63555;49.920;17.868;2023-04-07T07:26:28;98623.66;;;2.14;81.58
69911;BME280;63555;49.920;17.868;2023-04-07T07:31:29;98628.97;;;2.31;81.41
69911;BME280;63555;49.920;17.868;2023-04-07T07:36:30;98626.44;;;2.48;81.42
69911;BME280;63555;49.920;17.868;2023-04-07T07:41:31;98626.47;;;2.67;80.67
69911;BME280;63555;49.920;17.868;2023-04-07T07:46:31;98631.06;;;2.81;81.41
69911;BME280;63555;49.920;17.868;2023-04-07T07:51:32;98629.06;;;3.05;80.89
69911;BME280;63555;49.920;17.868;2023-04-07T07:56:32;98637.56;;;3.08;80.38
69911;BME280;63555;49.920;17.868;2023-04-07T08:01:32;98640.47;;;3.02;80.37
69911;BME280;63555;49.920;17.868;2023-04-07T08:06:33;98640.38;;;3.04;81.24
69911;BME280;63555;49.920;17.868;2023-04-07T08:11:33;98645.25;;;3.11;81.48
69911;BME280;63555;49.920;17.868;2023-04-07T08:16:34;98649.78;;;3.25;81.61
69911;BME280;63555;49.920;17.868;2023-04-07T08:21:35;98663.16;;;3.36;81.31
69911;BME280;63555;49.920;17.868;2023-04-07T08:26:35;98659.06;;;3.49;80.92
69911;BME280;63555;49.920;17.868;2023-04-07T08:31:36;98664.66;;;3.59;80.55
69911;BME280;63555;49.920;17.868;2023-04-07T08:36:36;98658.38;;;3.63;80.64
69911;BME280;63555;49.920;17.868;2023-04-07T08:41:38;98656.72;;;3.79;81.39
69911;BME280;63555;49.920;17.868;2023-04-07T08:46:39;98660.78;;;3.85;80.74
69911;BME280;63555;49.920;17.868;2023-04-07T08:51:46;98663.47;;;3.83;80.75
69911;BME280;63555;49.920;17.868;2023-04-07T08:56:47;98668.69;;;3.83;80.50
69911;BME280;63555;49.920;17.868;2023-04-07T09:01:48;98655.41;;;3.88;80.51
69911;BME280;63555;49.920;17.868;2023-04-07T09:06:48;98659.38;;;3.95;80.55
69911;BME280;63555;49.920;17.868;2023-04-07T09:11:50;98654.25;;;3.94;81.15
69911;BME280;63555;49.920;17.868;2023-04-07T09:16:53;98642.13;;;3.93;80.64
69911;BME280;63555;49.920;17.868;2023-04-07T09:21:54;98636.53;;;4.00;80.98
69911;BME280;63555;49.920;17.868;2023-04-07T09:27:17;98638.59;;;4.11;80.63
69911;BME280;63555;49.920;17.868;2023-04-07T09:32:34;98629.91;;;4.10;80.53
69911;BME280;63555;49.920;17.868;2023-04-07T09:37:37;98632.50;;;4.10;80.34
69911;BME280;63555;49.920;17.868;2023-04-07T09:42:45;98640.28;;;3.95;80.57
69911;BME280;63555;49.920;17.868;2023-04-07T09:47:45;98647.72;;;3.85;80.78
69911;BME280;63555;49.920;17.868;2023-04-07T09:52:50;98642.38;;;3.88;80.48
69911;BME280;63555;49.920;17.868;2023-04-07T09:57:52;98633.94;;;3.83;80.84
69911;BME280;63555;49.920;17.868;2023-04-07T10:02:54;98614.28;;;3.93;80.65
69911;BME280;63555;49.920;17.868;2023-04-07T10:07:55;98610.88;;;4.08;80.95
69911;BME280;63555;49.920;17.868;2023-04-07T10:12:56;98624.44;;;4.15;80.22
69911;BME280;63555;49.920;17.868;2023-04-07T10:17:58;98619.56;;;4.09;80.17
69911;BME280;63555;49.920;17.868;2023-04-07T10:23:10;98633.53;;;4.08;80.00
69911;BME280;63555;49.920;17.868;2023-04-07T10:28:13;98635.38;;;4.06;80.66
69911;BME280;63555;49.920;17.868;2023-04-07T10:33:15;98626.78;;;4.04;79.85
69911;BME280;63555;49.920;17.868;2023-04-07T10:38:17;98630.50;;;4.15;80.28
69911;BME280;63555;49.920;17.868;2023-04-07T10:43:36;98631.88;;;4.23;80.09
69911;BME280;63555;49.920;17.868;2023-04-07T10:48:40;98635.41;;;4.39;79.94
69911;BME280;63555;49.920;17.868;2023-04-07T10:59:20;98632.25;;;4.65;79.11
69911;BME280;63555;49.920;17.868;2023-04-07T11:04:35;98624.34;;;4.67;79.14
69911;BME280;63555;49.920;17.868;2023-04-07T11:09:36;98626.78;;;4.70;79.13
69911;BME280;63555;49.920;17.868;2023-04-07T11:14:36;98620.56;;;4.72;78.56
69911;BME280;63555;49.920;17.868;2023-04-07T11:19:50;98610.44;;;4.82;78.95
69911;BME280;63555;49.920;17.868;2023-04-07T11:24:51;98617.84;;;5.05;78.85
69911;BME280;63555;49.920;17.868;2023-04-07T11:29:51;98617.66;;;5.40;78.73
69911;BME280;63555;49.920;17.868;2023-04-07T11:34:52;98607.84;;;5.89;78.11
69911;BME280;63555;49.920;17.868;2023-04-07T11:39:53;98610.06;;;6.11;77.46
69911;BME280;63555;49.920;17.868;2023-04-07T11:44:54;98610.06;;;6.25;77.08
69911;BME280;63555;49.920;17.868;2023-04-07T11:49:54;98596.13;;;6.25;77.04
69911;BME280;63555;49.920;17.868;2023-04-07T11:54:55;98602.78;;;6.30;76.36
69911;BME280;63555;49.920;17.868;2023-04-07T12:00:08;98601.00;;;6.59;76.03
69911;BME280;63555;49.920;17.868;2023-04-07T12:05:10;98605.47;;;6.71;75.51
69911;BME280;63555;49.920;17.868;2023-04-07T12:10:22;98596.19;;;6.80;75.44
69911;BME280;63555;49.920;17.868;2023-04-07T12:15:24;98598.03;;;6.92;75.48
69911;BME280;63555;49.920;17.868;2023-04-07T12:20:26;98594.56;;;6.92;74.49
69911;BME280;63555;49.920;17.868;2023-04-07T13:36:46;98593.41;;;5.82;74.35
69911;BME280;63555;49.920;17.868;2023-04-07T13:41:46;98592.34;;;5.70;74.14
69911;BME280;63555;49.920;17.868;2023-04-07T13:46:47;98589.72;;;5.56;74.76
69911;BME280;63555;49.920;17.868;2023-04-07T13:51:47;98583.59;;;5.41;74.95
69911;BME280;63555;49.920;17.868;2023-04-07T13:56:48;98586.81;;;5.31;75.21
69911;BME280;63555;49.920;17.868;2023-04-07T14:01:48;98589.25;;;5.18;75.52
69911;BME280;63555;49.920;17.868;2023-04-07T14:06:49;98581.00;;;5.10;75.82
69911;BME280;63555;49.920;17.868;2023-04-07T14:11:49;98575.94;;;5.07;76.32
69911;BME280;63555;49.920;17.868;2023-04-07T14:16:49;98581.59;;;4.99;75.85
69911;BME280;63555;49.920;17.868;2023-04-07T14:21:51;98577.91;;;4.88;76.59
69911;BME280;63555;49.920;17.868;2023-04-07T14:26:52;98588.94;;;4.77;76.82
69911;BME280;63555;49.920;17.868;2023-04-07T14:31:53;98587.53;;;4.71;76.70
69911;BME280;63555;49.920;17.868;2023-04-07T14:36:55;98587.19;;;4.62;76.79
69911;BME280;63555;49.920;17.868;2023-04-07T14:41:56;98596.44;;;4.52;77.36
69911;BME280;63555;49.920;17.868;2023-04-07T14:46:56;98593.56;;;4.40;77.70
69911;BME280;63555;49.920;17.868;2023-04-07T14:51:56;98595.66;;;4.34;77.86
69911;BME280;63555;49.920;17.868;2023-04-07T14:56:58;98592.41;;;4.29;78.15
69911;BME280;63555;49.920;17.868;2023-04-07T15:01:58;98601.56;;;4.20;78.29
69911;BME280;63555;49.920;17.868;2023-04-07T15:06:59;98608.34;;;4.07;78.21
69911;BME280;63555;49.920;17.868;2023-04-07T15:11:59;98606.22;;;3.98;78.61
69911;BME280;63555;49.920;17.868;2023-04-07T15:17:00;98615.81;;;3.97;78.62
69911;BME280;63555;49.920;17.868;2023-04-07T15:22:00;98622.88;;;3.95;78.94
69911;BME280;63555;49.920;17.868;2023-04-07T15:27:00;98620.25;;;3.95;79.11
69911;BME280;63555;49.920;17.868;2023-04-07T15:32:01;98627.72;;;3.86;79.16
69911;BME280;63555;49.920;17.868;2023-04-07T15:37:01;98632.47;;;3.77;79.68
69911;BME280;63555;49.920;17.868;2023-04-07T15:42:01;98634.53;;;3.71;79.37
69911;BME280;63555;49.920;17.868;2023-04-07T15:47:02;98637.69;;;3.60;79.95
69911;BME280;63555;49.920;17.868;2023-04-07T15:52:05;98638.28;;;3.48;80.24
69911;BME280;63555;49.920;17.868;2023-04-07T15:57:05;98634.19;;;3.42;80.06
69911;BME280;63555;49.920;17.868;2023-04-07T16:02:06;98636.16;;;3.37;79.97
69911;BME280;63555;49.920;17.868;2023-04-07T16:07:08;98640.00;;;3.30;80.97
69911;BME280;63555;49.920;17.868;2023-04-07T16:12:08;98639.44;;;3.24;80.64
69911;BME280;63555;49.920;17.868;2023-04-07T16:17:09;98646.94;;;3.12;81.16
69911;BME280;63555;49.920;17.868;2023-04-07T16:22:10;98646.31;;;3.07;80.60
69911;BME280;63555;49.920;17.868;2023-04-07T16:27:10;98648.50;;;2.98;80.97
69911;BME280;63555;49.920;17.868;2023-04-07T16:32:11;98648.84;;;2.90;81.73
69911;BME280;63555;49.920;17.868;2023-04-07T16:37:11;98658.16;;;2.77;80.99
69911;BME280;63555;49.920;17.868;2023-04-07T16:42:11;98655.75;;;2.72;81.09
69911;BME280;63555;49.920;17.868;2023-04-07T16:47:12;98660.59;;;2.61;82.97
69911;BME280;63555;49.920;17.868;2023-04-07T16:52:12;98673.50;;;2.44;85.38
69911;BME280;63555;49.920;17.868;2023-04-07T16:57:12;98680.28;;;2.28;85.29
69911;BME280;63555;49.920;17.868;2023-04-07T17:02:13;98682.84;;;2.09;86.11
69911;BME280;63555;49.920;17.868;2023-04-07T17:07:15;98685.75;;;2.01;87.17
69911;BME280;63555;49.920;17.868;2023-04-07T17:12:15;98692.25;;;1.91;87.11
69911;BME280;63555;49.920;17.868;2023-04-07T17:17:16;98698.88;;;1.78;86.79
69911;BME280;63555;49.920;17.868;2023-04-07T17:22:16;98698.50;;;1.65;86.92
69911;BME280;63555;49.920;17.868;2023-04-07T17:27:17;98702.50;;;1.52;87.22
69911;BME280;63555;49.920;17.868;2023-04-07T17:32:17;98707.09;;;1.45;87.27
69911;BME280;63555;49.920;17.868;2023-04-07T17:37:18;98708.31;;;1.37;87.48
69911;BME280;63555;49.920;17.868;2023-04-07T17:42:18;98709.28;;;1.34;87.81
69911;BME280;63555;49.920;17.868;2023-04-07T17:47:18;98722.56;;;1.26;87.24
69911;BME280;63555;49.920;17.868;2023-04-07T17:52:19;98728.28;;;1.13;87.06
69911;BME280;63555;49.920;17.868;2023-04-07T17:57:19;98741.97;;;0.94;87.81
69911;BME280;63555;49.920;17.868;2023-04-07T18:02:19;98736.50;;;0.77;88.53
69911;BME280;63555;49.920;17.868;2023-04-07T18:07:20;98745.69;;;0.62;89.12
69911;BME280;63555;49.920;17.868;2023-04-07T18:12:21;98737.50;;;0.50;89.57
69911;BME280;63555;49.920;17.868;2023-04-07T18:17:22;98740.31;;;0.44;90.12
69911;BME280;63555;49.920;17.868;2023-04-07T18:22:22;98747.31;;;0.42;90.63
69911;BME280;63555;49.920;17.868;2023-04-07T18:27:22;98751.75;;;0.38;90.86
69911;BME280;63555;49.920;17.868;2023-04-07T18:32:24;98748.41;;;0.35;91.50
69911;BME280;63555;49.920;17.868;2023-04-07T18:37:24;98755.34;;;0.34;91.09
69911;BME280;63555;49.920;17.868;2023-04-07T18:42:25;98759.84;;;0.29;91.49
69911;BME280;63555;49.920;17.868;2023-04-07T18:47:25;98754.66;;;0.29;91.89
69911;BME280;63555;49.920;17.868;2023-04-07T18:52:27;98748.38;;;0.36;92.25
69911;BME280;63555;49.920;17.868;2023-04-07T18:57:28;98756.69;;;0.46;92.42
69911;BME280;63555;49.920;17.868;2023-04-07T19:02:28;98757.31;;;0.52;92.60
69911;BME280;63555;49.920;17.868;2023-04-07T19:07:28;98760.41;;;0.62;92.59
69911;BME280;63555;49.920;17.868;2023-04-07T19:12:29;98760.16;;;0.70;92.82
69911;BME280;63555;49.920;17.868;2023-04-07T19:17:29;98769.50;;;0.74;93.02
69911;BME280;63555;49.920;17.868;2023-04-07T19:22:30;98771.03;;;0.79;92.89
69911;BME280;63555;49.920;17.868;2023-04-07T19:27:31;98770.81;;;0.85;92.58
69911;BME280;63555;49.920;17.868;2023-04-07T19:32:31;98772.38;;;0.91;92.83
69911;BME280;63555;49.920;17.868;2023-04-07T19:37:32;98765.28;;;0.96;92.54
69911;BME280;63555;49.920;17.868;2023-04-07T19:42:34;98765.16;;;0.99;92.95
69911;BME280;63555;49.920;17.868;2023-04-07T19:47:34;98771.88;;;1.05;93.14
69911;BME280;63555;49.920;17.868;2023-04-07T19:52:35;98764.75;;;1.10;92.55
69911;BME280;63555;49.920;17.868;2023-04-07T19:57:37;98765.59;;;1.10;92.73
69911;BME280;63555;49.920;17.868;2023-04-07T20:02:39;98754.13;;;1.16;93.29
69911;BME280;63555;49.920;17.868;2023-04-07T20:07:39;98751.38;;;1.20;93.04
69911;BME280;63555;49.920;17.868;2023-04-07T20:12:40;98758.97;;;1.25;93.63
69911;BME280;63555;49.920;17.868;2023-04-07T20:17:40;98760.50;;;1.31;93.48
69911;BME280;63555;49.920;17.868;2023-04-07T20:22:40;98752.59;;;1.34;93.76
69911;BME280;63555;49.920;17.868;2023-04-07T20:27:41;98756.69;;;1.39;94.23
69911;BME280;63555;49.920;17.868;2023-04-07T20:32:44;98755.84;;;1.39;94.21
69911;BME280;63555;49.920;17.868;2023-04-07T20:37:45;98758.34;;;1.42;94.61
69911;BME280;63555;49.920;17.868;2023-04-07T20:42:46;98757.25;;;1.47;94.32
69911;BME280;63555;49.920;17.868;2023-04-07T20:47:46;98764.97;;;1.49;94.71
69911;BME280;63555;49.920;17.868;2023-04-07T20:52:46;98760.50;;;1.52;94.79
69911;BME280;63555;49.920;17.868;2023-04-07T20:57:47;98756.09;;;1.54;94.68
69911;BME280;63555;49.920;17.868;2023-04-07T21:02:47;98752.59;;;1.55;94.74
69911;BME280;63555;49.920;17.868;2023-04-07T21:07:48;98749.03;;;1.58;94.80
69911;BME280;63555;49.920;17.868;2023-04-07T21:12:48;98759.47;;;1.56;95.11
69911;BME280;63555;49.920;17.868;2023-04-07T21:17:48;98755.13;;;1.57;95.19
69911;BME280;63555;49.920;17.868;2023-04-07T21:22:49;98758.47;;;1.60;95.23
69911;BME280;63555;49.920;17.868;2023-04-07T21:27:50;98761.06;;;1.60;95.09
69911;BME280;63555;49.920;17.868;2023-04-07T21:32:51;98762.81;;;1.60;95.19
69911;BME280;63555;49.920;17.868;2023-04-07T21:37:51;98752.28;;;1.63;95.59
69911;BME280;63555;49.920;17.868;2023-04-07T21:42:51;98756.53;;;1.66;95.94
69911;BME280;63555;49.920;17.868;2023-04-07T21:47:52;98756.41;;;1.69;95.87
69911;BME280;63555;49.920;17.868;2023-04-07T21:52:52;98759.78;;;1.71;95.81
69911;BME280;63555;49.920;17.868;2023-04-07T21:57:53;98764.97;;;1.71;95.57
69911;BME280;63555;49.920;17.868;2023-04-07T22:02:53;98758.81;;;1.73;96.09
69911;BME280;63555;49.920;17.868;2023-04-07T22:07:54;98759.63;;;1.75;95.61
69911;BME280;63555;49.920;17.868;2023-04-07T22:12:54;98752.56;;;1.79;96.18
69911;BME280;63555;49.920;17.868;2023-04-07T22:17:55;98756.97;;;1.77;96.11
69911;BME280;63555;49.920;17.868;2023-04-07T22:22:56;98762.22;;;1.75;95.48
69911;BME280;63555;49.920;17.868;2023-04-07T22:27:57;98754.50;;;1.74;95.85
69911;BME280;63555;49.920;17.868;2023-04-07T22:32:58;98766.72;;;1.70;96.46
69911;BME280;63555;49.920;17.868;2023-04-07T22:37:58;98761.47;;;1.72;95.92
69911;BME280;63555;49.920;17.868;2023-04-07T22:42:58;98760.41;;;1.77;96.05
69911;BME280;63555;49.920;17.868;2023-04-07T22:48:00;98760.16;;;1.83;96.31
69911;BME280;63555;49.920;17.868;2023-04-07T22:53:01;98757.63;;;1.82;95.88
69911;BME280;63555;49.920;17.868;2023-04-07T22:58:01;98759.25;;;1.84;96.08
69911;BME280;63555;49.920;17.868;2023-04-07T23:03:01;98767.78;;;1.88;96.04
69911;BME280;63555;49.920;17.868;2023-04-07T23:08:02;98770.25;;;1.91;96.27
69911;BME280;63555;49.920;17.868;2023-04-07T23:13:02;98771.16;;;1.90;96.57
69911;BME280;63555;49.920;17.868;2023-04-07T23:18:02;98765.19;;;1.88;96.91
69911;BME280;63555;49.920;17.868;2023-04-07T23:23:03;98765.97;;;1.90;96.61
69911;BME280;63555;49.920;17.868;2023-04-07T23:28:03;98768.56;;;1.90;96.66
69911;BME280;63555;49.920;17.868;2023-04-07T23:33:03;98765.00;;;1.92;96.25
69911;BME280;63555;49.920;17.868;2023-04-07T23:38:04;98758.94;;;1.92;96.63
69911;BME280;63555;49.920;17.868;2023-04-07T23:43:04;98759.78;;;1.92;96.74
69911;BME280;63555;49.920;17.868;2023-04-07T23:48:06;98764.03;;;1.95;96.29
69911;BME280;63555;49.920;17.868;2023-04-07T23:53:06;98756.16;;;1.97;96.89
69911;BME280;63555;49.920;17.868;2023-04-07T23:58:06;98757.25;;;1.91;96.81
